sensor_id;sensor_type;location;lat;lon;timestamp;temperature;humidity
2935;DHT22;2462;51.456;7.248;2023-04-08T00:00:31;13.70;99.90
2935;DHT22;2462;51.456;7.248;2023-04-08T00:02:56;13.70;99.90
2935;DHT22;2462;51.456;7.248;2023-04-08T00:05:22;13.70;99.90
2935;DHT22;2462;51.456;7.248;2023-04-08T00:07:47;13.70;99.90
2935;DHT22;2462;51.456;7.248;2023-04-08T00:10:13;13.70;99.90
2935;DHT22;2462;51.456;7.248;2023-04-08T00:12:38;13.60;99.90
2935;DHT22;2462;51.456;7.248;2023-04-08T00:15:05;13.70;99.90
2935;DHT22;2462;51.456;7.248;2023-04-08T00:17:30;13.60;99.90
2935;DHT22;2462;51.456;7.248;2023-04-08T00:19:56;13.60;99.90
2935;DHT22;2462;51.456;7.248;2023-04-08T00:22:21;13.60;99.90
2935;DHT22;2462;51.456;7.248;2023-04-08T00:24:47;13.60;99.90
2935;DHT22;2462;51.456;7.248;2023-04-08T00:27:12;13.50;99.90
2935;DHT22;2462;51.456;7.248;2023-04-08T00:29:38;13.50;99.90
2935;DHT22;2462;51.456;7.248;2023-04-08T00:32:03;13.50;99.90
2935;DHT22;2462;51.456;7.248;2023-04-08T00:34:29;13.50;99.90
2935;DHT22;2462;51.456;7.248;2023-04-08T00:36:54;13.40;99.90
2935;DHT22;2462;51.456;7.248;2023-04-08T00:39:20;13.40;99.90
2935;DHT22;2462;51.456;7.248;2023-04-08T00:41:46;13.40;99.90
2935;DHT22;2462;51.456;7.248;2023-04-08T00:44:11;13.40;99.90
2935;DHT22;2462;51.456;7.248;2023-04-08T00:46:38;13.40;99.90
2935;DHT22;2462;51.456;7.248;2023-04-08T00:49:04;13.40;99.90
2935;DHT22;2462;51.456;7.248;2023-04-08T00:51:32;13.30;99.90
2935;DHT22;2462;51.456;7.248;2023-04-08T00:53:57;13.30;99.90
2935;DHT22;2462;51.456;7.248;2023-04-08T00:56:25;13.30;99.90
2935;DHT22;2462;51.456;7.248;2023-04-08T00:58:51;13.30;99.90
2935;DHT22;2462;51.456;7.248;2023-04-08T01:09:12;13.30;99.90
2935;DHT22;2462;51.456;7.248;2023-04-08T01:11:42;13.20;99.90
2935;DHT22;2462;51.456;7.248;2023-04-08T01:14:10;13.20;99.90
2935;DHT22;2462;51.456;7.248;2023-04-08T01:16:38;13.20;99.90
2935;DHT22;2462;51.456;7.248;2023-04-08T01:19:07;13.20;99.90
2935;DHT22;2462;51.456;7.248;2023-04-08T01:21:35;13.20;99.90
2935;DHT22;2462;51.456;7.248;2023-04-08T01:24:19;13.20;99.90
2935;DHT22;2462;51.456;7.248;2023-04-08T01:26:48;13.20;99.90
2935;DHT22;2462;51.456;7.248;2023-04-08T01:29:14;13.10;99.90
2935;DHT22;2462;51.456;7.248;2023-04-08T01:31:41;13.10;99.90
2935;DHT22;2462;51.456;7.248;2023-04-08T01:34:09;13.10;99.90
2935;DHT22;2462;51.456;7.248;2023-04-08T01:36:36;13.00;99.90
2935;DHT22;2462;51.456;7.248;2023-04-08T01:39:04;13.00;99.90
2935;DHT22;2462;51.456;7.248;2023-04-08T01:41:30;13.10;99.90
2935;DHT22;2462;51.456;7.248;2023-04-08T01:43:58;13.00;99.90
2935;DHT22;2462;51.456;7.248;2023-04-08T01:46:24;13.00;99.90
2935;DHT22;2462;51.456;7.248;2023-04-08T01:48:50;13.00;99.90
2935;DHT22;2462;51.456;7.248;2023-04-08T01:51:17;13.00;99.90
2935;DHT22;2462;51.456;7.248;2023-04-08T01:53:44;13.00;99.90
2935;DHT22;2462;51.456;7.248;2023-04-08T01:56:11;13.00;99.90
2935;DHT22;2462;51.456;7.248;2023-04-08T01:58:41;12.90;99.90
2935;DHT22;2462;51.456;7.248;2023-04-08T02:01:10;12.90;99.90
2935;DHT22;2462;51.456;7.248;2023-04-08T02:03:37;12.90;99.90
2935;DHT22;2462;51.456;7.248;2023-04-08T02:06:02;13.00;99.90
2935;DHT22;2462;51.456;7.248;2023-04-08T02:08:28;13.00;99.90
2935;DHT22;2462;51.456;7.248;2023-04-08T02:10:54;12.90;99.90
2935;DHT22;2462;51.456;7.248;2023-04-08T02:13:19;12.90;99.90
2935;DHT22;2462;51.456;7.248;2023-04-08T02:15:50;13.00;99.90
2935;DHT22;2462;51.456;7.248;2023-04-08T02:18:23;12.90;99.90
2935;DHT22;2462;51.456;7.248;2023-04-08T02:21:12;12.90;99.90
2935;DHT22;2462;51.456;7.248;2023-04-08T02:23:39;12.90;99.90
2935;DHT22;2462;51.456;7.248;2023-04-08T02:26:12;12.90;99.90
2935;DHT22;2462;51.456;7.248;2023-04-08T02:28:40;12.90;99.90
2935;DHT22;2462;51.456;7.248;2023-04-08T02:31:10;12.90;99.90
2935;DHT22;2462;51.456;7.248;2023-04-08T02:33:39;12.90;99.90
2935;DHT22;2462;51.456;7.248;2023-04-08T02:36:06;12.90;99.90
2935;DHT22;2462;51.456;7.248;2023-04-08T02:38:32;12.90;99.90
2935;DHT22;2462;51.456;7.248;2023-04-08T02:40:57;12.90;99.90
2935;DHT22;2462;51.456;7.248;2023-04-08T02:43:24;12.90;99.90
2935;DHT22;2462;51.456;7.248;2023-04-08T02:45:56;12.90;99.90
2935;DHT22;2462;51.456;7.248;2023-04-08T02:48:21;12.90;99.90
2935;DHT22;2462;51.456;7.248;2023-04-08T02:50:47;12.90;99.90
2935;DHT22;2462;51.456;7.248;2023-04-08T02:53:12;12.90;99.90
2935;DHT22;2462;51.456;7.248;2023-04-08T02:55:38;12.90;99.90
2935;DHT22;2462;51.456;7.248;2023-04-08T02:58:04;12.90;99.90
2935;DHT22;2462;51.456;7.248;2023-04-08T03:00:30;12.90;99.90
2935;DHT22;2462;51.456;7.248;2023-04-08T03:02:55;12.90;99.90
2935;DHT22;2462;51.456;7.248;2023-04-08T03:05:21;12.90;99.90
2935;DHT22;2462;51.456;7.248;2023-04-08T03:07:47;12.90;99.90
2935;DHT22;2462;51.456;7.248;2023-04-08T03:10:12;12.90;99.90
2935;DHT22;2462;51.456;7.248;2023-04-08T03:12:38;12.90;99.90
2935;DHT22;2462;51.456;7.248;2023-04-08T03:15:04;12.90;99.90
2935;DHT22;2462;51.456;7.248;2023-04-08T03:17:30;12.90;99.90
2935;DHT22;2462;51.456;7.248;2023-04-08T03:19:59;12.90;99.90
2935;DHT22;2462;51.456;7.248;2023-04-08T03:22:25;12.90;99.90
2935;DHT22;2462;51.456;7.248;2023-04-08T03:24:50;13.00;99.90
2935;DHT22;2462;51.456;7.248;2023-04-08T03:27:16;13.00;99.90
2935;DHT22;2462;51.456;7.248;2023-04-08T03:29:41;12.90;99.90
2935;DHT22;2462;51.456;7.248;2023-04-08T03:32:07;13.00;99.90
2935;DHT22;2462;51.456;7.248;2023-04-08T03:34:33;13.00;99.90
2935;DHT22;2462;51.456;7.248;2023-04-08T03:36:59;13.00;99.90
2935;DHT22;2462;51.456;7.248;2023-04-08T03:39:24;13.00;99.90
2935;DHT22;2462;51.456;7.248;2023-04-08T03:41:50;13.00;99.90
2935;DHT22;2462;51.456;7.248;2023-04-08T03:44:15;13.00;99.90
2935;DHT22;2462;51.456;7.248;2023-04-08T03:46:41;13.00;99.90
2935;DHT22;2462;51.456;7.248;2023-04-08T03:49:06;13.00;99.90
2935;DHT22;2462;51.456;7.248;2023-04-08T03:51:32;13.00;99.90
2935;DHT22;2462;51.456;7.248;2023-04-08T03:53:57;13.00;99.90
2935;DHT22;2462;51.456;7.248;2023-04-08T03:56:23;13.00;99.90
2935;DHT22;2462;51.456;7.248;2023-04-08T03:58:49;13.00;99.90
2935;DHT22;2462;51.456;7.248;2023-04-08T04:01:15;13.00;99.90
2935;DHT22;2462;51.456;7.248;2023-04-08T04:03:41;13.00;99.90
2935;DHT22;2462;51.456;7.248;2023-04-08T04:06:06;13.00;99.90
2935;DHT22;2462;51.456;7.248;2023-04-08T04:08:32;12.90;99.90
2935;DHT22;2462;51.456;7.248;2023-04-08T04:10:58;13.00;99.90
2935;DHT22;2462;51.456;7.248;2023-04-08T04:13:24;12.90;99.90
2935;DHT22;2462;51.456;7.248;2023-04-08T04:15:49;12.90;99.90
2935;DHT22;2462;51.456;7.248;2023-04-08T04:18:15;12.90;99.90
2935;DHT22;2462;51.456;7.248;2023-04-08T04:20:41;12.90;99.90
2935;DHT22;2462;51.456;7.248;2023-04-08T04:23:08;12.90;99.90
2935;DHT22;2462;51.456;7.248;2023-04-08T04:25:33;12.90;99.90
2935;DHT22;2462;51.456;7.248;2023-04-08T04:27:59;12.90;99.90
2935;DHT22;2462;51.456;7.248;2023-04-08T04:30:26;12.90;99.90
2935;DHT22;2462;51.456;7.248;2023-04-08T04:32:52;12.90;99.90
2935;DHT22;2462;51.456;7.248;2023-04-08T04:35:17;12.90;99.90
2935;DHT22;2462;51.456;7.248;2023-04-08T04:37:43;12.90;99.90
2935;DHT22;2462;51.456;7.248;2023-04-08T04:40:08;12.90;99.90
2935;DHT22;2462;51.456;7.248;2023-04-08T04:42:34;12.90;99.90
2935;DHT22;2462;51.456;7.248;2023-04-08T04:45:00;12.90;99.90
2935;DHT22;2462;51.456;7.248;2023-04-08T04:47:25;12.90;99.90
2935;DHT22;2462;51.456;7.248;2023-04-08T04:49:51;12.90;99.90
2935;DHT22;2462;51.456;7.248;2023-04-08T04:52:16;12.90;99.90
2935;DHT22;2462;51.456;7.248;2023-04-08T04:54:42;12.90;99.90
2935;DHT22;2462;51.456;7.248;2023-04-08T04:57:07;12.90;99.90
2935;DHT22;2462;51.456;7.248;2023-04-08T04:59:33;12.90;99.90
2935;DHT22;2462;51.456;7.248;2023-04-08T05:01:59;12.90;99.90
2935;DHT22;2462;51.456;7.248;2023-04-08T05:04:24;12.90;99.90
2935;DHT22;2462;51.456;7.248;2023-04-08T05:06:50;12.90;99.90
2935;DHT22;2462;51.456;7.248;2023-04-08T05:09:16;12.90;99.90
2935;DHT22;2462;51.456;7.248;2023-04-08T05:11:41;12.90;99.90
2935;DHT22;2462;51.456;7.248;2023-04-08T05:14:07;12.90;99.90
2935;DHT22;2462;51.456;7.248;2023-04-08T05:16:33;12.90;99.90
2935;DHT22;2462;51.456;7.248;2023-04-08T05:18:59;12.90;99.90
2935;DHT22;2462;51.456;7.248;2023-04-08T05:21:24;12.90;99.90
2935;DHT22;2462;51.456;7.248;2023-04-08T05:23:50;12.90;99.90
2935;DHT22;2462;51.456;7.248;2023-04-08T05:26:18;12.90;99.90
2935;DHT22;2462;51.456;7.248;2023-04-08T05:28:46;12.90;99.90
2935;DHT22;2462;51.456;7.248;2023-04-08T05:31:15;12.90;99.90
2935;DHT22;2462;51.456;7.248;2023-04-08T05:33:40;12.90;99.90
2935;DHT22;2462;51.456;7.248;2023-04-08T05:36:06;12.90;99.90
2935;DHT22;2462;51.456;7.248;2023-04-08T05:38:31;13.00;99.90
2935;DHT22;2462;51.456;7.248;2023-04-08T05:40:57;13.00;99.90
2935;DHT22;2462;51.456;7.248;2023-04-08T05:43:22;13.00;99.90
2935;DHT22;2462;51.456;7.248;2023-04-08T05:45:48;13.10;99.90
2935;DHT22;2462;51.456;7.248;2023-04-08T05:48:13;13.10;99.90
2935;DHT22;2462;51.456;7.248;2023-04-08T05:50:39;13.10;99.90
2935;DHT22;2462;51.456;7.248;2023-04-08T05:53:04;13.10;99.90
2935;DHT22;2462;51.456;7.248;2023-04-08T05:55:30;13.10;99.90
2935;DHT22;2462;51.456;7.248;2023-04-08T05:57:56;13.10;99.90
2935;DHT22;2462;51.456;7.248;2023-04-08T06:00:21;13.10;99.90
2935;DHT22;2462;51.456;7.248;2023-04-08T06:02:47;13.10;99.90
2935;DHT22;2462;51.456;7.248;2023-04-08T06:05:12;13.20;99.90
2935;DHT22;2462;51.456;7.248;2023-04-08T06:07:38;13.20;99.90
2935;DHT22;2462;51.456;7.248;2023-04-08T06:10:04;13.20;99.90
2935;DHT22;2462;51.456;7.248;2023-04-08T06:12:34;13.20;99.90
2935;DHT22;2462;51.456;7.248;2023-04-08T06:15:00;13.20;99.90
2935;DHT22;2462;51.456;7.248;2023-04-08T06:17:25;13.20;99.90
2935;DHT22;2462;51.456;7.248;2023-04-08T06:19:51;13.20;99.90
2935;DHT22;2462;51.456;7.248;2023-04-08T06:22:16;13.20;99.90
2935;DHT22;2462;51.456;7.248;2023-04-08T06:24:42;13.30;99.90
2935;DHT22;2462;51.456;7.248;2023-04-08T06:27:07;13.30;99.90
2935;DHT22;2462;51.456;7.248;2023-04-08T06:29:33;13.30;99.90
2935;DHT22;2462;51.456;7.248;2023-04-08T06:31:58;13.30;99.90
2935;DHT22;2462;51.456;7.248;2023-04-08T06:34:24;13.30;99.90
2935;DHT22;2462;51.456;7.248;2023-04-08T06:36:50;13.30;99.90
2935;DHT22;2462;51.456;7.248;2023-04-08T06:39:15;13.40;99.90
2935;DHT22;2462;51.456;7.248;2023-04-08T06:41:41;13.40;99.90
2935;DHT22;2462;51.456;7.248;2023-04-08T06:44:07;13.40;99.90
2935;DHT22;2462;51.456;7.248;2023-04-08T06:46:32;13.40;99.90
2935;DHT22;2462;51.456;7.248;2023-04-08T06:48:58;13.50;99.90
2935;DHT22;2462;51.456;7.248;2023-04-08T06:51:23;13.70;99.90
2935;DHT22;2462;51.456;7.248;2023-04-08T17:09:17;17.60;99.90
2935;DHT22;2462;51.456;7.248;2023-04-08T17:11:43;17.70;99.90
2935;DHT22;2462;51.456;7.248;2023-04-08T17:14:08;17.70;99.90
2935;DHT22;2462;51.456;7.248;2023-04-08T17:16:34;17.60;99.90
2935;DHT22;2462;51.456;7.248;2023-04-08T17:19:00;17.60;99.90
2935;DHT22;2462;51.456;7.248;2023-04-08T17:21:26;17.50;99.90
2935;DHT22;2462;51.456;7.248;2023-04-08T17:23:52;17.50;99.90
2935;DHT22;2462;51.456;7.248;2023-04-08T17:26:18;17.40;99.90
2935;DHT22;2462;51.456;7.248;2023-04-08T17:28:44;17.40;99.90
2935;DHT22;2462;51.456;7.248;2023-04-08T17:31:10;17.40;99.90
2935;DHT22;2462;51.456;7.248;2023-04-08T17:33:36;17.30;99.90
2935;DHT22;2462;51.456;7.248;2023-04-08T17:36:01;17.30;99.90
2935;DHT22;2462;51.456;7.248;2023-04-08T17:38:27;17.20;99.90
2935;DHT22;2462;51.456;7.248;2023-04-08T17:40:53;17.20;99.90
2935;DHT22;2462;51.456;7.248;2023-04-08T17:43:18;17.20;99.90
2935;DHT22;2462;51.456;7.248;2023-04-08T17:45:44;17.10;99.90
2935;DHT22;2462;51.456;7.248;2023-04-08T17:48:09;17.10;99.90
2935;DHT22;2462;51.456;7.248;2023-04-08T17:50:35;17.00;99.90
2935;DHT22;2462;51.456;7.248;2023-04-08T17:53:01;17.00;99.90
2935;DHT22;2462;51.456;7.248;2023-04-08T17:55:27;17.00;99.90
2935;DHT22;2462;51.456;7.248;2023-04-08T17:57:53;17.00;99.90
2935;DHT22;2462;51.456;7.248;2023-04-08T18:00:19;16.90;99.90
2935;DHT22;2462;51.456;7.248;2023-04-08T18:02:45;16.90;99.90
2935;DHT22;2462;51.456;7.248;2023-04-08T18:05:11;16.80;99.90
2935;DHT22;2462;51.456;7.248;2023-04-08T18:07:36;16.80;99.90
2935;DHT22;2462;51.456;7.248;2023-04-08T18:10:02;16.80;99.90
2935;DHT22;2462;51.456;7.248;2023-04-08T18:12:28;16.80;99.90
2935;DHT22;2462;51.456;7.248;2023-04-08T18:14:56;16.70;99.90
2935;DHT22;2462;51.456;7.248;2023-04-08T18:17:22;16.70;99.90
2935;DHT22;2462;51.456;7.248;2023-04-08T18:19:48;16.70;99.90
2935;DHT22;2462;51.456;7.248;2023-04-08T18:22:13;16.60;99.90
2935;DHT22;2462;51.456;7.248;2023-04-08T18:24:38;16.60;99.90
2935;DHT22;2462;51.456;7.248;2023-04-08T18:27:04;16.60;99.90
2935;DHT22;2462;51.456;7.248;2023-04-08T18:29:30;16.60;99.90
2935;DHT22;2462;51.456;7.248;2023-04-08T18:31:55;16.50;99.90
2935;DHT22;2462;51.456;7.248;2023-04-08T18:34:21;16.50;99.90
2935;DHT22;2462;51.456;7.248;2023-04-08T18:36:48;16.50;99.90
2935;DHT22;2462;51.456;7.248;2023-04-08T18:39:14;16.50;99.90
2935;DHT22;2462;51.456;7.248;2023-04-08T18:41:40;16.40;99.90
2935;DHT22;2462;51.456;7.248;2023-04-08T18:44:05;16.40;99.90
2935;DHT22;2462;51.456;7.248;2023-04-08T18:46:31;16.40;99.90
2935;DHT22;2462;51.456;7.248;2023-04-08T18:48:56;16.40;99.90
2935;DHT22;2462;51.456;7.248;2023-04-08T18:51:22;16.30;99.90
2935;DHT22;2462;51.456;7.248;2023-04-08T18:53:47;16.30;99.90
2935;DHT22;2462;51.456;7.248;2023-04-08T18:56:18;16.30;99.90
2935;DHT22;2462;51.456;7.248;2023-04-08T18:58:44;16.30;99.90
2935;DHT22;2462;51.456;7.248;2023-04-08T19:01:14;16.20;99.90
2935;DHT22;2462;51.456;7.248;2023-04-08T19:03:40;16.20;99.90
2935;DHT22;2462;51.456;7.248;2023-04-08T19:06:09;16.20;99.90
2935;DHT22;2462;51.456;7.248;2023-04-08T19:08:35;16.20;99.90
2935;DHT22;2462;51.456;7.248;2023-04-08T19:11:02;16.20;99.90
2935;DHT22;2462;51.456;7.248;2023-04-08T19:13:28;16.10;99.90
2935;DHT22;2462;51.456;7.248;2023-04-08T19:15:54;16.10;99.90
2935;DHT22;2462;51.456;7.248;2023-04-08T19:18:19;16.10;99.90
2935;DHT22;2462;51.456;7.248;2023-04-08T19:20:45;16.10;99.90
2935;DHT22;2462;51.456;7.248;2023-04-08T19:23:11;16.10;99.90
2935;DHT22;2462;51.456;7.248;2023-04-08T19:25:36;16.10;99.90
2935;DHT22;2462;51.456;7.248;2023-04-08T19:28:02;16.00;99.90
2935;DHT22;2462;51.456;7.248;2023-04-08T19:30:36;16.00;99.90
2935;DHT22;2462;51.456;7.248;2023-04-08T19:33:03;16.00;99.90
2935;DHT22;2462;51.456;7.248;2023-04-08T19:35:28;16.00;99.90
2935;DHT22;2462;51.456;7.248;2023-04-08T19:37:54;16.00;99.90
2935;DHT22;2462;51.456;7.248;2023-04-08T19:40:19;16.00;99.90
2935;DHT22;2462;51.456;7.248;2023-04-08T19:42:45;15.90;99.90
2935;DHT22;2462;51.456;7.248;2023-04-08T19:45:11;15.90;99.90
2935;DHT22;2462;51.456;7.248;2023-04-08T19:47:36;15.90;99.90
2935;DHT22;2462;51.456;7.248;2023-04-08T19:50:04;15.90;99.90
2935;DHT22;2462;51.456;7.248;2023-04-08T19:52:30;15.90;99.90
2935;DHT22;2462;51.456;7.248;2023-04-08T19:54:56;15.80;99.90
2935;DHT22;2462;51.456;7.248;2023-04-08T19:57:21;15.80;99.90
2935;DHT22;2462;51.456;7.248;2023-04-08T19:59:47;15.80;99.90
2935;DHT22;2462;51.456;7.248;2023-04-08T20:02:13;15.80;99.90
2935;DHT22;2462;51.456;7.248;2023-04-08T20:04:38;15.80;99.90
2935;DHT22;2462;51.456;7.248;2023-04-08T20:07:04;15.80;99.90
2935;DHT22;2462;51.456;7.248;2023-04-08T20:09:30;15.70;99.90
2935;DHT22;2462;51.456;7.248;2023-04-08T20:11:57;15.70;99.90
2935;DHT22;2462;51.456;7.248;2023-04-08T20:14:29;15.70;99.90
2935;DHT22;2462;51.456;7.248;2023-04-08T20:16:55;15.70;99.90
2935;DHT22;2462;51.456;7.248;2023-04-08T20:19:22;15.70;99.90
2935;DHT22;2462;51.456;7.248;2023-04-08T20:21:47;15.70;99.90
2935;DHT22;2462;51.456;7.248;2023-04-08T20:24:13;15.70;99.90
2935;DHT22;2462;51.456;7.248;2023-04-08T20:26:39;15.70;99.90
2935;DHT22;2462;51.456;7.248;2023-04-08T20:29:05;15.70;99.90
2935;DHT22;2462;51.456;7.248;2023-04-08T20:31:30;15.60;99.90
2935;DHT22;2462;51.456;7.248;2023-04-08T20:33:56;15.60;99.90
2935;DHT22;2462;51.456;7.248;2023-04-08T20:36:22;15.60;99.90
2935;DHT22;2462;51.456;7.248;2023-04-08T20:38:49;15.60;99.90
2935;DHT22;2462;51.456;7.248;2023-04-08T20:41:18;15.60;99.90
2935;DHT22;2462;51.456;7.248;2023-04-08T20:43:44;15.50;99.90
2935;DHT22;2462;51.456;7.248;2023-04-08T20:46:10;15.60;99.90
2935;DHT22;2462;51.456;7.248;2023-04-08T20:48:35;15.50;99.90
2935;DHT22;2462;51.456;7.248;2023-04-08T20:51:01;15.50;99.90
2935;DHT22;2462;51.456;7.248;2023-04-08T20:53:27;15.50;99.90
2935;DHT22;2462;51.456;7.248;2023-04-08T20:55:52;15.50;99.90
2935;DHT22;2462;51.456;7.248;2023-04-08T20:58:18;15.50;99.90
2935;DHT22;2462;51.456;7.248;2023-04-08T21:00:44;15.40;99.90
2935;DHT22;2462;51.456;7.248;2023-04-08T21:03:12;15.40;99.90
2935;DHT22;2462;51.456;7.248;2023-04-08T21:05:38;15.30;99.90
2935;DHT22;2462;51.456;7.248;2023-04-08T21:08:04;15.30;99.90
2935;DHT22;2462;51.456;7.248;2023-04-08T21:10:30;15.30;99.90
2935;DHT22;2462;51.456;7.248;2023-04-08T21:12:55;15.30;99.90
2935;DHT22;2462;51.456;7.248;2023-04-08T21:15:21;15.30;99.90
2935;DHT22;2462;51.456;7.248;2023-04-08T21:17:46;15.30;99.90
2935;DHT22;2462;51.456;7.248;2023-04-08T21:20:12;15.30;99.90
2935;DHT22;2462;51.456;7.248;2023-04-08T21:22:38;15.30;99.90
2935;DHT22;2462;51.456;7.248;2023-04-08T21:25:04;15.20;99.90
2935;DHT22;2462;51.456;7.248;2023-04-08T21:27:30;15.20;99.90
2935;DHT22;2462;51.456;7.248;2023-04-08T21:29:55;15.20;99.90
2935;DHT22;2462;51.456;7.248;2023-04-08T21:32:21;15.20;99.90
2935;DHT22;2462;51.456;7.248;2023-04-08T21:34:46;15.10;99.90
2935;DHT22;2462;51.456;7.248;2023-04-08T21:37:12;15.10;99.90
2935;DHT22;2462;51.456;7.248;2023-04-08T21:39:37;15.10;99.90
2935;DHT22;2462;51.456;7.248;2023-04-08T21:42:03;15.10;99.90
2935;DHT22;2462;51.456;7.248;2023-04-08T21:44:28;15.10;99.90
2935;DHT22;2462;51.456;7.248;2023-04-08T21:46:54;15.00;99.90
2935;DHT22;2462;51.456;7.248;2023-04-08T21:49:20;15.00;99.90
2935;DHT22;2462;51.456;7.248;2023-04-08T21:51:45;15.00;99.90
2935;DHT22;2462;51.456;7.248;2023-04-08T21:54:11;14.90;99.90
2935;DHT22;2462;51.456;7.248;2023-04-08T21:56:37;14.90;99.90
2935;DHT22;2462;51.456;7.248;2023-04-08T21:59:02;14.90;99.90
2935;DHT22;2462;51.456;7.248;2023-04-08T22:01:28;14.80;99.90
2935;DHT22;2462;51.456;7.248;2023-04-08T22:03:54;14.80;99.90
2935;DHT22;2462;51.456;7.248;2023-04-08T22:06:21;14.80;99.90
2935;DHT22;2462;51.456;7.248;2023-04-08T22:08:46;14.80;99.90
2935;DHT22;2462;51.456;7.248;2023-04-08T22:11:12;14.70;99.90
2935;DHT22;2462;51.456;7.248;2023-04-08T22:13:37;14.70;99.90
2935;DHT22;2462;51.456;7.248;2023-04-08T22:16:03;14.70;99.90
2935;DHT22;2462;51.456;7.248;2023-04-08T22:18:29;14.70;99.90
2935;DHT22;2462;51.456;7.248;2023-04-08T22:20:54;14.60;99.90
2935;DHT22;2462;51.456;7.248;2023-04-08T22:23:20;14.60;99.90
2935;DHT22;2462;51.456;7.248;2023-04-08T22:25:49;14.60;99.90
2935;DHT22;2462;51.456;7.248;2023-04-08T22:28:15;14.60;99.90
2935;DHT22;2462;51.456;7.248;2023-04-08T22:30:41;14.60;99.90
2935;DHT22;2462;51.456;7.248;2023-04-08T22:33:07;14.60;99.90
2935;DHT22;2462;51.456;7.248;2023-04-08T22:35:33;14.60;99.90
2935;DHT22;2462;51.456;7.248;2023-04-08T22:37:58;14.60;99.90
2935;DHT22;2462;51.456;7.248;2023-04-08T22:40:24;14.50;99.90
2935;DHT22;2462;51.456;7.248;2023-04-08T22:42:50;14.50;99.90
2935;DHT22;2462;51.456;7.248;2023-04-08T22:45:15;14.50;99.90
2935;DHT22;2462;51.456;7.248;2023-04-08T22:47:41;14.50;99.90
2935;DHT22;2462;51.456;7.248;2023-04-08T22:50:06;14.50;99.90
2935;DHT22;2462;51.456;7.248;2023-04-08T22:52:32;14.50;99.90
2935;DHT22;2462;51.456;7.248;2023-04-08T22:54:58;14.40;99.90
2935;DHT22;2462;51.456;7.248;2023-04-08T22:57:23;14.40;99.90
2935;DHT22;2462;51.456;7.248;2023-04-08T22:59:49;14.40;99.90
2935;DHT22;2462;51.456;7.248;2023-04-08T23:02:14;14.40;99.90
2935;DHT22;2462;51.456;7.248;2023-04-08T23:04:40;14.40;99.90
2935;DHT22;2462;51.456;7.248;2023-04-08T23:07:05;14.40;99.90
2935;DHT22;2462;51.456;7.248;2023-04-08T23:09:31;14.30;99.90
2935;DHT22;2462;51.456;7.248;2023-04-08T23:11:56;14.30;99.90
2935;DHT22;2462;51.456;7.248;2023-04-08T23:14:22;14.30;99.90
2935;DHT22;2462;51.456;7.248;2023-04-08T23:16:48;14.30;99.90
2935;DHT22;2462;51.456;7.248;2023-04-08T23:19:13;14.30;99.90
2935;DHT22;2462;51.456;7.248;2023-04-08T23:21:39;14.30;99.90
2935;DHT22;2462;51.456;7.248;2023-04-08T23:24:05;14.30;99.90
2935;DHT22;2462;51.456;7.248;2023-04-08T23:26:31;14.30;99.90
2935;DHT22;2462;51.456;7.248;2023-04-08T23:28:56;14.20;99.90
2935;DHT22;2462;51.456;7.248;2023-04-08T23:31:22;14.20;99.90
2935;DHT22;2462;51.456;7.248;2023-04-08T23:33:47;14.20;99.90
2935;DHT22;2462;51.456;7.248;2023-04-08T23:36:13;14.20;99.90
2935;DHT22;2462;51.456;7.248;2023-04-08T23:38:39;14.20;99.90
2935;DHT22;2462;51.456;7.248;2023-04-08T23:41:05;14.20;99.90
2935;DHT22;2462;51.456;7.248;2023-04-08T23:43:31;14.20;99.90
2935;DHT22;2462;51.456;7.248;2023-04-08T23:45:57;14.10;99.90
2935;DHT22;2462;51.456;7.248;2023-04-08T23:48:23;14.10;99.90
2935;DHT22;2462;51.456;7.248;2023-04-08T23:50:52;14.10;99.90
2935;DHT22;2462;51.456;7.248;2023-04-08T23:53:19;14.10;99.90
2935;DHT22;2462;51.456;7.248;2023-04-08T23:55:44;14.10;99.90
2935;DHT22;2462;51.456;7.248;2023-04-08T23:58:10;14.10;99.90
